sensor_id;sensor_type;location;lat;lon;timestamp;P1;durP1;ratioP1;P2;durP2;ratioP2
70675;SDS011;59069;52.242;20.900;2023-09-18T00:01:46;8.23;;;4.50;;
70675;SDS011;59069;52.242;20.900;2023-09-18T00:04:11;10.10;;;5.50;;
70675;SDS011;59069;52.242;20.900;2023-09-18T00:06:37;10.53;;;5.50;;
70675;SDS011;59069;52.242;20.900;2023-09-18T00:09:02;10.43;;;5.23;;
70675;SDS011;59069;52.242;20.900;2023-09-18T00:11:28;10.65;;;5.82;;
70675;SDS011;59069;52.242;20.900;2023-09-18T00:13:53;11.37;;;5.87;;
70675;SDS011;59069;52.242;20.900;2023-09-18T00:16:18;9.43;;;5.57;;
70675;SDS011;59069;52.242;20.900;2023-09-18T00:18:44;9.60;;;5.70;;
70675;SDS011;59069;52.242;20.900;2023-09-18T00:21:10;9.83;;;5.53;;
70675;SDS011;59069;52.242;20.900;2023-09-18T00:23:36;10.00;;;5.43;;
70675;SDS011;59069;52.242;20.900;2023-09-18T00:26:02;10.35;;;5.97;;
70675;SDS011;59069;52.242;20.900;2023-09-18T00:28:28;9.50;;;5.70;;
70675;SDS011;59069;52.242;20.900;2023-09-18T00:30:54;11.53;;;5.60;;
70675;SDS011;59069;52.242;20.900;2023-09-18T00:33:19;9.50;;;5.60;;
70675;SDS011;59069;52.242;20.900;2023-09-18T00:35:45;10.73;;;5.75;;
70675;SDS011;59069;52.242;20.900;2023-09-18T00:38:12;10.77;;;5.60;;
70675;SDS011;59069;52.242;20.900;2023-09-18T00:40:37;10.50;;;5.27;;
70675;SDS011;59069;52.242;20.900;2023-09-18T00:43:03;9.23;;;5.67;;
70675;SDS011;59069;52.242;20.900;2023-09-18T00:45:28;11.30;;;6.00;;
70675;SDS011;59069;52.242;20.900;2023-09-18T00:47:54;9.93;;;6.05;;
70675;SDS011;59069;52.242;20.900;2023-09-18T00:50:20;10.10;;;6.33;;
70675;SDS011;59069;52.242;20.900;2023-09-18T00:52:46;11.20;;;6.05;;
70675;SDS011;59069;52.242;20.900;2023-09-18T00:55:12;11.70;;;6.68;;
70675;SDS011;59069;52.242;20.900;2023-09-18T00:57:38;20.47;;;10.60;;
70675;SDS011;59069;52.242;20.900;2023-09-18T01:00:04;12.65;;;6.65;;
70675;SDS011;59069;52.242;20.900;2023-09-18T01:02:30;10.63;;;6.25;;
70675;SDS011;59069;52.242;20.900;2023-09-18T01:04:56;12.43;;;6.67;;
70675;SDS011;59069;52.242;20.900;2023-09-18T01:07:22;12.00;;;6.45;;
70675;SDS011;59069;52.242;20.900;2023-09-18T01:09:48;10.23;;;6.37;;
70675;SDS011;59069;52.242;20.900;2023-09-18T01:12:17;10.68;;;6.82;;
70675;SDS011;59069;52.242;20.900;2023-09-18T01:17:26;10.60;;;6.73;;
70675;SDS011;59069;52.242;20.900;2023-09-18T01:19:51;12.18;;;7.00;;
70675;SDS011;59069;52.242;20.900;2023-09-18T01:22:17;11.37;;;6.47;;
70675;SDS011;59069;52.242;20.900;2023-09-18T01:24:45;11.65;;;6.53;;
70675;SDS011;59069;52.242;20.900;2023-09-18T01:27:12;11.33;;;6.73;;
70675;SDS011;59069;52.242;20.900;2023-09-18T01:29:39;11.63;;;7.38;;
70675;SDS011;59069;52.242;20.900;2023-09-18T01:32:05;11.50;;;7.18;;
70675;SDS011;59069;52.242;20.900;2023-09-18T01:34:32;12.40;;;7.17;;
70675;SDS011;59069;52.242;20.900;2023-09-18T01:37:01;12.18;;;7.65;;
70675;SDS011;59069;52.242;20.900;2023-09-18T01:39:29;12.15;;;7.32;;
70675;SDS011;59069;52.242;20.900;2023-09-18T01:41:58;13.25;;;7.38;;
70675;SDS011;59069;52.242;20.900;2023-09-18T01:44:25;11.07;;;6.80;;
70675;SDS011;59069;52.242;20.900;2023-09-18T01:46:50;13.70;;;7.10;;
70675;SDS011;59069;52.242;20.900;2023-09-18T01:49:29;12.10;;;7.03;;
70675;SDS011;59069;52.242;20.900;2023-09-18T01:51:56;10.93;;;6.50;;
70675;SDS011;59069;52.242;20.900;2023-09-18T01:54:22;11.25;;;7.22;;
70675;SDS011;59069;52.242;20.900;2023-09-18T01:56:48;11.52;;;7.68;;
70675;SDS011;59069;52.242;20.900;2023-09-18T01:59:13;12.53;;;7.50;;
70675;SDS011;59069;52.242;20.900;2023-09-18T02:01:38;12.00;;;7.10;;
70675;SDS011;59069;52.242;20.900;2023-09-18T02:04:04;12.47;;;7.23;;
70675;SDS011;59069;52.242;20.900;2023-09-18T02:06:30;10.70;;;7.07;;
70675;SDS011;59069;52.242;20.900;2023-09-18T02:08:55;11.33;;;7.40;;
70675;SDS011;59069;52.242;20.900;2023-09-18T02:11:21;13.10;;;7.03;;
70675;SDS011;59069;52.242;20.900;2023-09-18T02:13:46;11.95;;;6.47;;
70675;SDS011;59069;52.242;20.900;2023-09-18T02:16:11;11.40;;;7.10;;
70675;SDS011;59069;52.242;20.900;2023-09-18T02:18:37;10.87;;;6.93;;
70675;SDS011;59069;52.242;20.900;2023-09-18T02:21:02;12.10;;;7.40;;
70675;SDS011;59069;52.242;20.900;2023-09-18T02:23:28;12.83;;;7.17;;
70675;SDS011;59069;52.242;20.900;2023-09-18T02:25:57;11.23;;;7.32;;
70675;SDS011;59069;52.242;20.900;2023-09-18T02:28:23;12.43;;;6.90;;
70675;SDS011;59069;52.242;20.900;2023-09-18T02:30:48;11.57;;;7.30;;
70675;SDS011;59069;52.242;20.900;2023-09-18T02:33:14;11.67;;;6.93;;
70675;SDS011;59069;52.242;20.900;2023-09-18T02:35:40;10.77;;;6.45;;
70675;SDS011;59069;52.242;20.900;2023-09-18T02:38:05;10.50;;;6.60;;
70675;SDS011;59069;52.242;20.900;2023-09-18T02:40:31;11.13;;;6.90;;
70675;SDS011;59069;52.242;20.900;2023-09-18T02:42:56;10.25;;;6.78;;
70675;SDS011;59069;52.242;20.900;2023-09-18T02:45:22;10.90;;;6.90;;
70675;SDS011;59069;52.242;20.900;2023-09-18T02:47:47;12.07;;;6.90;;
70675;SDS011;59069;52.242;20.900;2023-09-18T02:50:12;12.77;;;7.20;;
70675;SDS011;59069;52.242;20.900;2023-09-18T02:52:38;10.47;;;6.20;;
70675;SDS011;59069;52.242;20.900;2023-09-18T02:55:03;11.10;;;6.87;;
70675;SDS011;59069;52.242;20.900;2023-09-18T02:57:29;10.73;;;6.80;;
70675;SDS011;59069;52.242;20.900;2023-09-18T02:59:55;10.40;;;6.63;;
70675;SDS011;59069;52.242;20.900;2023-09-18T03:02:20;11.90;;;6.77;;
70675;SDS011;59069;52.242;20.900;2023-09-18T03:04:46;11.73;;;6.70;;
70675;SDS011;59069;52.242;20.900;2023-09-18T03:07:14;11.20;;;7.00;;
70675;SDS011;59069;52.242;20.900;2023-09-18T03:09:41;11.13;;;6.82;;
70675;SDS011;59069;52.242;20.900;2023-09-18T03:12:06;13.13;;;7.13;;
70675;SDS011;59069;52.242;20.900;2023-09-18T03:14:32;11.10;;;7.28;;
70675;SDS011;59069;52.242;20.900;2023-09-18T03:16:57;71.63;;;23.97;;
70675;SDS011;59069;52.242;20.900;2023-09-18T03:19:23;14.07;;;7.87;;
70675;SDS011;59069;52.242;20.900;2023-09-18T03:21:49;13.45;;;6.93;;
70675;SDS011;59069;52.242;20.900;2023-09-18T03:24:15;12.87;;;7.83;;
70675;SDS011;59069;52.242;20.900;2023-09-18T03:26:40;12.35;;;7.50;;
70675;SDS011;59069;52.242;20.900;2023-09-18T03:29:06;13.33;;;7.57;;
70675;SDS011;59069;52.242;20.900;2023-09-18T03:31:31;11.17;;;7.00;;
70675;SDS011;59069;52.242;20.900;2023-09-18T03:33:56;13.07;;;6.73;;
70675;SDS011;59069;52.242;20.900;2023-09-18T03:36:22;14.23;;;7.53;;
70675;SDS011;59069;52.242;20.900;2023-09-18T03:38:51;12.85;;;8.10;;
70675;SDS011;59069;52.242;20.900;2023-09-18T03:41:16;14.30;;;8.43;;
70675;SDS011;59069;52.242;20.900;2023-09-18T03:43:41;16.00;;;8.50;;
70675;SDS011;59069;52.242;20.900;2023-09-18T03:46:07;14.60;;;8.50;;
70675;SDS011;59069;52.242;20.900;2023-09-18T03:48:33;12.83;;;7.73;;
70675;SDS011;59069;52.242;20.900;2023-09-18T03:51:05;14.20;;;8.02;;
70675;SDS011;59069;52.242;20.900;2023-09-18T03:53:34;12.80;;;7.28;;
70675;SDS011;59069;52.242;20.900;2023-09-18T03:56:00;13.45;;;7.95;;
70675;SDS011;59069;52.242;20.900;2023-09-18T03:58:26;13.87;;;8.20;;
70675;SDS011;59069;52.242;20.900;2023-09-18T04:00:51;15.67;;;8.43;;
70675;SDS011;59069;52.242;20.900;2023-09-18T04:03:17;13.77;;;8.18;;
70675;SDS011;59069;52.242;20.900;2023-09-18T04:05:42;12.40;;;7.93;;
70675;SDS011;59069;52.242;20.900;2023-09-18T04:08:08;14.80;;;8.13;;
70675;SDS011;59069;52.242;20.900;2023-09-18T04:10:34;13.38;;;8.65;;
70675;SDS011;59069;52.242;20.900;2023-09-18T04:12:59;14.00;;;8.15;;
70675;SDS011;59069;52.242;20.900;2023-09-18T04:15:25;13.67;;;8.90;;
70675;SDS011;59069;52.242;20.900;2023-09-18T04:17:50;14.40;;;8.37;;
70675;SDS011;59069;52.242;20.900;2023-09-18T04:20:16;14.27;;;8.63;;
70675;SDS011;59069;52.242;20.900;2023-09-18T04:22:42;14.18;;;8.63;;
70675;SDS011;59069;52.242;20.900;2023-09-18T04:25:09;15.48;;;9.27;;
70675;SDS011;59069;52.242;20.900;2023-09-18T04:27:35;15.30;;;8.70;;
70675;SDS011;59069;52.242;20.900;2023-09-18T04:30:01;12.98;;;8.32;;
70675;SDS011;59069;52.242;20.900;2023-09-18T04:32:29;15.60;;;9.17;;
70675;SDS011;59069;52.242;20.900;2023-09-18T04:34:54;12.40;;;8.07;;
70675;SDS011;59069;52.242;20.900;2023-09-18T04:37:20;16.00;;;8.83;;
70675;SDS011;59069;52.242;20.900;2023-09-18T04:39:45;14.33;;;8.77;;
70675;SDS011;59069;52.242;20.900;2023-09-18T04:42:11;14.07;;;8.80;;
70675;SDS011;59069;52.242;20.900;2023-09-18T04:44:36;14.43;;;8.63;;
70675;SDS011;59069;52.242;20.900;2023-09-18T04:47:01;14.97;;;8.50;;
70675;SDS011;59069;52.242;20.900;2023-09-18T04:49:28;18.00;;;9.70;;
70675;SDS011;59069;52.242;20.900;2023-09-18T04:51:54;13.60;;;8.73;;
70675;SDS011;59069;52.242;20.900;2023-09-18T04:54:20;12.93;;;8.15;;
70675;SDS011;59069;52.242;20.900;2023-09-18T04:56:45;13.13;;;8.70;;
70675;SDS011;59069;52.242;20.900;2023-09-18T04:59:11;17.37;;;9.10;;
70675;SDS011;59069;52.242;20.900;2023-09-18T05:01:36;12.53;;;8.37;;
70675;SDS011;59069;52.242;20.900;2023-09-18T05:04:01;15.00;;;8.83;;
70675;SDS011;59069;52.242;20.900;2023-09-18T05:06:27;14.18;;;9.00;;
70675;SDS011;59069;52.242;20.900;2023-09-18T05:08:52;15.87;;;8.73;;
70675;SDS011;59069;52.242;20.900;2023-09-18T05:11:19;15.68;;;9.10;;
70675;SDS011;59069;52.242;20.900;2023-09-18T05:13:44;13.97;;;9.40;;
70675;SDS011;59069;52.242;20.900;2023-09-18T05:16:10;15.07;;;9.80;;
70675;SDS011;59069;52.242;20.900;2023-09-18T05:18:35;16.73;;;9.13;;
70675;SDS011;59069;52.242;20.900;2023-09-18T05:21:01;15.90;;;9.00;;
70675;SDS011;59069;52.242;20.900;2023-09-18T05:23:29;16.17;;;9.80;;
70675;SDS011;59069;52.242;20.900;2023-09-18T05:25:55;15.85;;;9.68;;
70675;SDS011;59069;52.242;20.900;2023-09-18T05:28:20;16.37;;;8.80;;
70675;SDS011;59069;52.242;20.900;2023-09-18T05:30:46;13.47;;;9.00;;
70675;SDS011;59069;52.242;20.900;2023-09-18T05:33:11;19.30;;;9.97;;
70675;SDS011;59069;52.242;20.900;2023-09-18T05:35:41;16.08;;;9.80;;
70675;SDS011;59069;52.242;20.900;2023-09-18T05:38:08;15.00;;;9.40;;
70675;SDS011;59069;52.242;20.900;2023-09-18T05:40:36;14.07;;;9.23;;
70675;SDS011;59069;52.242;20.900;2023-09-18T05:43:01;15.83;;;9.47;;
70675;SDS011;59069;52.242;20.900;2023-09-18T05:45:27;14.03;;;9.03;;
70675;SDS011;59069;52.242;20.900;2023-09-18T05:47:53;14.07;;;9.35;;
70675;SDS011;59069;52.242;20.900;2023-09-18T05:50:19;16.03;;;10.00;;
70675;SDS011;59069;52.242;20.900;2023-09-18T05:52:45;17.80;;;10.17;;
70675;SDS011;59069;52.242;20.900;2023-09-18T05:55:11;17.02;;;10.48;;
70675;SDS011;59069;52.242;20.900;2023-09-18T05:57:38;18.55;;;11.38;;
70675;SDS011;59069;52.242;20.900;2023-09-18T06:00:04;17.70;;;9.97;;
70675;SDS011;59069;52.242;20.900;2023-09-18T06:02:30;18.67;;;10.65;;
70675;SDS011;59069;52.242;20.900;2023-09-18T06:04:56;16.17;;;9.83;;
70675;SDS011;59069;52.242;20.900;2023-09-18T06:07:23;15.38;;;9.32;;
70675;SDS011;59069;52.242;20.900;2023-09-18T06:09:49;15.57;;;9.45;;
70675;SDS011;59069;52.242;20.900;2023-09-18T06:12:15;17.40;;;10.00;;
70675;SDS011;59069;52.242;20.900;2023-09-18T06:14:40;18.55;;;10.48;;
70675;SDS011;59069;52.242;20.900;2023-09-18T06:17:06;15.93;;;9.87;;
70675;SDS011;59069;52.242;20.900;2023-09-18T06:19:31;18.10;;;9.40;;
70675;SDS011;59069;52.242;20.900;2023-09-18T06:21:58;16.95;;;10.13;;
70675;SDS011;59069;52.242;20.900;2023-09-18T06:24:23;18.07;;;10.33;;
70675;SDS011;59069;52.242;20.900;2023-09-18T06:26:48;16.70;;;10.20;;
70675;SDS011;59069;52.242;20.900;2023-09-18T06:29:15;16.08;;;10.25;;
70675;SDS011;59069;52.242;20.900;2023-09-18T06:31:41;15.77;;;10.13;;
70675;SDS011;59069;52.242;20.900;2023-09-18T06:34:06;17.77;;;10.43;;
70675;SDS011;59069;52.242;20.900;2023-09-18T06:36:32;16.07;;;9.80;;
70675;SDS011;59069;52.242;20.900;2023-09-18T06:38:58;15.82;;;9.93;;
70675;SDS011;59069;52.242;20.900;2023-09-18T06:41:23;14.90;;;9.27;;
70675;SDS011;59069;52.242;20.900;2023-09-18T06:43:48;15.80;;;9.40;;
70675;SDS011;59069;52.242;20.900;2023-09-18T06:46:14;15.07;;;9.67;;
70675;SDS011;59069;52.242;20.900;2023-09-18T06:48:39;15.10;;;9.53;;
70675;SDS011;59069;52.242;20.900;2023-09-18T06:51:05;15.65;;;9.60;;
70675;SDS011;59069;52.242;20.900;2023-09-18T06:53:31;16.27;;;9.13;;
70675;SDS011;59069;52.242;20.900;2023-09-18T06:55:56;14.25;;;8.75;;
70675;SDS011;59069;52.242;20.900;2023-09-18T06:58:22;16.40;;;9.03;;
70675;SDS011;59069;52.242;20.900;2023-09-18T07:00:47;14.10;;;9.10;;
70675;SDS011;59069;52.242;20.900;2023-09-18T07:03:15;15.35;;;9.68;;
70675;SDS011;59069;52.242;20.900;2023-09-18T07:05:41;14.00;;;8.85;;
70675;SDS011;59069;52.242;20.900;2023-09-18T07:08:07;13.73;;;8.27;;
70675;SDS011;59069;52.242;20.900;2023-09-18T07:10:36;14.38;;;8.75;;
70675;SDS011;59069;52.242;20.900;2023-09-18T07:13:03;15.75;;;9.00;;
70675;SDS011;59069;52.242;20.900;2023-09-18T07:15:28;16.57;;;8.57;;
70675;SDS011;59069;52.242;20.900;2023-09-18T07:17:53;15.67;;;9.13;;
70675;SDS011;59069;52.242;20.900;2023-09-18T07:20:19;14.33;;;8.43;;
70675;SDS011;59069;52.242;20.900;2023-09-18T07:22:47;15.35;;;8.43;;
70675;SDS011;59069;52.242;20.900;2023-09-18T07:25:13;15.13;;;8.40;;
70675;SDS011;59069;52.242;20.900;2023-09-18T07:27:38;12.33;;;8.43;;
70675;SDS011;59069;52.242;20.900;2023-09-18T07:30:09;13.45;;;9.00;;
70675;SDS011;59069;52.242;20.900;2023-09-18T07:32:35;17.60;;;8.57;;
70675;SDS011;59069;52.242;20.900;2023-09-18T07:35:00;13.13;;;8.93;;
70675;SDS011;59069;52.242;20.900;2023-09-18T07:37:26;16.47;;;8.13;;
70675;SDS011;59069;52.242;20.900;2023-09-18T07:39:55;14.60;;;7.80;;
70675;SDS011;59069;52.242;20.900;2023-09-18T07:42:23;12.75;;;8.25;;
70675;SDS011;59069;52.242;20.900;2023-09-18T07:44:50;13.25;;;7.78;;
70675;SDS011;59069;52.242;20.900;2023-09-18T07:47:15;13.80;;;8.30;;
70675;SDS011;59069;52.242;20.900;2023-09-18T07:49:40;13.93;;;8.20;;
70675;SDS011;59069;52.242;20.900;2023-09-18T07:52:06;14.00;;;8.13;;
70675;SDS011;59069;52.242;20.900;2023-09-18T07:54:31;12.67;;;8.33;;
70675;SDS011;59069;52.242;20.900;2023-09-18T07:56:56;14.73;;;7.67;;
70675;SDS011;59069;52.242;20.900;2023-09-18T07:59:22;12.93;;;8.10;;
70675;SDS011;59069;52.242;20.900;2023-09-18T08:01:50;11.23;;;7.63;;
70675;SDS011;59069;52.242;20.900;2023-09-18T08:04:15;22.17;;;13.53;;
70675;SDS011;59069;52.242;20.900;2023-09-18T08:06:41;15.30;;;10.35;;
70675;SDS011;59069;52.242;20.900;2023-09-18T08:09:06;15.33;;;8.40;;
70675;SDS011;59069;52.242;20.900;2023-09-18T08:11:35;13.80;;;8.63;;
70675;SDS011;59069;52.242;20.900;2023-09-18T08:14:01;13.20;;;7.68;;
70675;SDS011;59069;52.242;20.900;2023-09-18T08:16:28;13.37;;;8.30;;
70675;SDS011;59069;52.242;20.900;2023-09-18T08:18:54;12.55;;;8.55;;
70675;SDS011;59069;52.242;20.900;2023-09-18T08:21:21;13.40;;;8.40;;
70675;SDS011;59069;52.242;20.900;2023-09-18T08:23:48;10.85;;;7.38;;
70675;SDS011;59069;52.242;20.900;2023-09-18T08:26:14;14.80;;;8.73;;
70675;SDS011;59069;52.242;20.900;2023-09-18T08:28:39;11.90;;;8.17;;
70675;SDS011;59069;52.242;20.900;2023-09-18T08:31:08;12.60;;;8.50;;
70675;SDS011;59069;52.242;20.900;2023-09-18T08:33:34;10.77;;;8.05;;
70675;SDS011;59069;52.242;20.900;2023-09-18T08:36:01;12.63;;;8.07;;
70675;SDS011;59069;52.242;20.900;2023-09-18T08:38:26;13.55;;;7.97;;
70675;SDS011;59069;52.242;20.900;2023-09-18T08:40:53;14.53;;;8.07;;
70675;SDS011;59069;52.242;20.900;2023-09-18T08:43:19;14.75;;;8.00;;
70675;SDS011;59069;52.242;20.900;2023-09-18T08:45:52;12.13;;;8.00;;
70675;SDS011;59069;52.242;20.900;2023-09-18T08:48:20;12.32;;;7.28;;
70675;SDS011;59069;52.242;20.900;2023-09-18T08:50:47;11.00;;;7.88;;
70675;SDS011;59069;52.242;20.900;2023-09-18T08:53:13;12.87;;;7.30;;
70675;SDS011;59069;52.242;20.900;2023-09-18T08:55:40;11.63;;;8.20;;
70675;SDS011;59069;52.242;20.900;2023-09-18T08:58:06;11.02;;;8.07;;
70675;SDS011;59069;52.242;20.900;2023-09-18T09:00:32;13.30;;;7.63;;
70675;SDS011;59069;52.242;20.900;2023-09-18T09:03:00;11.23;;;7.00;;
70675;SDS011;59069;52.242;20.900;2023-09-18T09:05:26;11.32;;;7.55;;
70675;SDS011;59069;52.242;20.900;2023-09-18T09:07:52;12.13;;;7.82;;
70675;SDS011;59069;52.242;20.900;2023-09-18T09:10:17;11.00;;;7.53;;
70675;SDS011;59069;52.242;20.900;2023-09-18T09:15:23;14.60;;;8.27;;
70675;SDS011;59069;52.242;20.900;2023-09-18T09:18:03;13.65;;;7.22;;
70675;SDS011;59069;52.242;20.900;2023-09-18T09:20:32;11.57;;;7.10;;
70675;SDS011;59069;52.242;20.900;2023-09-18T09:23:02;11.70;;;7.00;;
70675;SDS011;59069;52.242;20.900;2023-09-18T09:25:29;13.33;;;6.63;;
70675;SDS011;59069;52.242;20.900;2023-09-18T09:28:02;11.38;;;7.05;;
70675;SDS011;59069;52.242;20.900;2023-09-18T09:30:33;12.52;;;6.63;;
70675;SDS011;59069;52.242;20.900;2023-09-18T09:33:02;12.55;;;6.43;;
70675;SDS011;59069;52.242;20.900;2023-09-18T09:35:30;9.95;;;5.97;;
70675;SDS011;59069;52.242;20.900;2023-09-18T09:38:00;10.73;;;5.20;;
70675;SDS011;59069;52.242;20.900;2023-09-18T09:40:32;9.30;;;5.47;;
70675;SDS011;59069;52.242;20.900;2023-09-18T09:42:58;8.83;;;5.53;;
70675;SDS011;59069;52.242;20.900;2023-09-18T09:45:27;12.80;;;6.80;;
70675;SDS011;59069;52.242;20.900;2023-09-18T09:48:00;8.98;;;6.05;;
70675;SDS011;59069;52.242;20.900;2023-09-18T09:50:29;14.65;;;6.65;;
70675;SDS011;59069;52.242;20.900;2023-09-18T09:52:54;10.93;;;6.00;;
70675;SDS011;59069;52.242;20.900;2023-09-18T09:55:30;7.82;;;5.45;;
70675;SDS011;59069;52.242;20.900;2023-09-18T09:57:58;10.35;;;5.30;;
70675;SDS011;59069;52.242;20.900;2023-09-18T10:03:06;9.57;;;6.00;;
70675;SDS011;59069;52.242;20.900;2023-09-18T10:05:34;8.95;;;5.55;;
70675;SDS011;59069;52.242;20.900;2023-09-18T10:08:02;8.48;;;5.13;;
70675;SDS011;59069;52.242;20.900;2023-09-18T10:10:33;8.48;;;5.13;;
70675;SDS011;59069;52.242;20.900;2023-09-18T10:13:07;10.82;;;5.68;;
70675;SDS011;59069;52.242;20.900;2023-09-18T10:15:35;8.97;;;5.17;;
70675;SDS011;59069;52.242;20.900;2023-09-18T10:18:10;9.50;;;5.38;;
70675;SDS011;59069;52.242;20.900;2023-09-18T10:21:00;7.88;;;5.22;;
70675;SDS011;59069;52.242;20.900;2023-09-18T10:26:09;9.07;;;5.60;;
70675;SDS011;59069;52.242;20.900;2023-09-18T10:28:37;10.63;;;5.80;;
70675;SDS011;59069;52.242;20.900;2023-09-18T10:31:04;8.07;;;5.35;;
70675;SDS011;59069;52.242;20.900;2023-09-18T10:33:31;9.43;;;5.20;;
70675;SDS011;59069;52.242;20.900;2023-09-18T10:35:57;9.88;;;5.22;;
70675;SDS011;59069;52.242;20.900;2023-09-18T10:38:25;9.15;;;5.03;;
70675;SDS011;59069;52.242;20.900;2023-09-18T10:40:52;7.73;;;4.80;;
70675;SDS011;59069;52.242;20.900;2023-09-18T10:43:21;8.23;;;4.82;;
70675;SDS011;59069;52.242;20.900;2023-09-18T10:45:49;7.97;;;4.82;;
70675;SDS011;59069;52.242;20.900;2023-09-18T10:48:17;8.10;;;4.88;;
70675;SDS011;59069;52.242;20.900;2023-09-18T10:50:44;11.23;;;4.80;;
70675;SDS011;59069;52.242;20.900;2023-09-18T10:53:10;8.93;;;4.30;;
70675;SDS011;59069;52.242;20.900;2023-09-18T10:55:36;7.20;;;4.50;;
70675;SDS011;59069;52.242;20.900;2023-09-18T10:58:03;8.70;;;4.90;;
70675;SDS011;59069;52.242;20.900;2023-09-18T11:00:29;7.73;;;4.87;;
70675;SDS011;59069;52.242;20.900;2023-09-18T11:03:09;9.60;;;5.22;;
70675;SDS011;59069;52.242;20.900;2023-09-18T11:05:39;9.65;;;4.70;;
70675;SDS011;59069;52.242;20.900;2023-09-18T11:13:34;7.50;;;4.70;;
70675;SDS011;59069;52.242;20.900;2023-09-18T11:16:47;8.30;;;4.95;;
70675;SDS011;59069;52.242;20.900;2023-09-18T11:18:53;8.80;;;4.90;;
70675;SDS011;59069;52.242;20.900;2023-09-18T11:21:26;7.63;;;5.07;;
70675;SDS011;59069;52.242;20.900;2023-09-18T11:23:59;8.40;;;5.00;;
70675;SDS011;59069;52.242;20.900;2023-09-18T11:26:34;8.45;;;5.38;;
70675;SDS011;59069;52.242;20.900;2023-09-18T11:29:04;8.25;;;5.20;;
70675;SDS011;59069;52.242;20.900;2023-09-18T11:32:05;8.73;;;5.78;;
70675;SDS011;59069;52.242;20.900;2023-09-18T11:34:24;9.80;;;5.40;;
70675;SDS011;59069;52.242;20.900;2023-09-18T11:36:56;11.00;;;5.47;;
70675;SDS011;59069;52.242;20.900;2023-09-18T11:42:19;9.38;;;5.85;;
70675;SDS011;59069;52.242;20.900;2023-09-18T11:44:47;10.23;;;5.80;;
70675;SDS011;59069;52.242;20.900;2023-09-18T11:47:18;11.63;;;6.03;;
70675;SDS011;59069;52.242;20.900;2023-09-18T11:49:51;8.82;;;5.85;;
70675;SDS011;59069;52.242;20.900;2023-09-18T11:52:22;8.65;;;5.53;;
70675;SDS011;59069;52.242;20.900;2023-09-18T11:54:49;9.75;;;5.45;;
70675;SDS011;59069;52.242;20.900;2023-09-18T11:57:17;9.05;;;5.63;;
70675;SDS011;59069;52.242;20.900;2023-09-18T11:59:44;9.63;;;5.40;;
70675;SDS011;59069;52.242;20.900;2023-09-18T12:02:11;11.68;;;5.85;;
70675;SDS011;59069;52.242;20.900;2023-09-18T12:04:45;10.07;;;6.07;;
70675;SDS011;59069;52.242;20.900;2023-09-18T12:07:12;9.35;;;6.10;;
70675;SDS011;59069;52.242;20.900;2023-09-18T12:09:38;9.50;;;6.57;;
70675;SDS011;59069;52.242;20.900;2023-09-18T12:12:07;10.63;;;6.80;;
70675;SDS011;59069;52.242;20.900;2023-09-18T12:14:33;10.77;;;6.90;;
70675;SDS011;59069;52.242;20.900;2023-09-18T12:17:00;9.32;;;6.50;;
70675;SDS011;59069;52.242;20.900;2023-09-18T12:19:27;11.23;;;6.90;;
70675;SDS011;59069;52.242;20.900;2023-09-18T12:21:53;12.20;;;7.25;;
70675;SDS011;59069;52.242;20.900;2023-09-18T12:24:25;10.00;;;7.03;;
70675;SDS011;59069;52.242;20.900;2023-09-18T12:26:51;9.65;;;6.75;;
70675;SDS011;59069;52.242;20.900;2023-09-18T12:29:17;12.52;;;7.45;;
70675;SDS011;59069;52.242;20.900;2023-09-18T12:31:46;10.90;;;6.70;;
70675;SDS011;59069;52.242;20.900;2023-09-18T12:34:19;10.88;;;7.55;;
70675;SDS011;59069;52.242;20.900;2023-09-18T12:36:46;10.57;;;7.70;;
70675;SDS011;59069;52.242;20.900;2023-09-18T12:39:15;11.50;;;7.68;;
70675;SDS011;59069;52.242;20.900;2023-09-18T12:41:41;11.90;;;7.53;;
70675;SDS011;59069;52.242;20.900;2023-09-18T12:44:09;10.00;;;6.53;;
70675;SDS011;59069;52.242;20.900;2023-09-18T12:46:35;10.20;;;7.03;;
70675;SDS011;59069;52.242;20.900;2023-09-18T12:49:21;10.85;;;7.43;;
70675;SDS011;59069;52.242;20.900;2023-09-18T12:51:56;10.27;;;7.20;;
70675;SDS011;59069;52.242;20.900;2023-09-18T12:54:45;10.13;;;7.40;;
70675;SDS011;59069;52.242;20.900;2023-09-18T12:57:17;11.03;;;7.20;;
70675;SDS011;59069;52.242;20.900;2023-09-18T12:59:43;11.20;;;7.55;;
70675;SDS011;59069;52.242;20.900;2023-09-18T13:02:09;13.27;;;7.50;;
70675;SDS011;59069;52.242;20.900;2023-09-18T13:04:38;10.10;;;7.30;;
70675;SDS011;59069;52.242;20.900;2023-09-18T13:07:08;10.73;;;7.75;;
70675;SDS011;59069;52.242;20.900;2023-09-18T13:09:35;9.55;;;7.20;;
70675;SDS011;59069;52.242;20.900;2023-09-18T13:12:02;10.60;;;7.00;;
70675;SDS011;59069;52.242;20.900;2023-09-18T13:14:28;10.13;;;7.00;;
70675;SDS011;59069;52.242;20.900;2023-09-18T13:17:00;10.25;;;7.32;;
70675;SDS011;59069;52.242;20.900;2023-09-18T13:19:29;10.07;;;6.95;;
70675;SDS011;59069;52.242;20.900;2023-09-18T13:21:55;10.32;;;7.82;;
70675;SDS011;59069;52.242;20.900;2023-09-18T13:24:30;11.50;;;7.87;;
70675;SDS011;59069;52.242;20.900;2023-09-18T13:26:56;10.30;;;7.60;;
70675;SDS011;59069;52.242;20.900;2023-09-18T13:29:24;12.13;;;7.20;;
70675;SDS011;59069;52.242;20.900;2023-09-18T13:31:50;10.30;;;7.13;;
70675;SDS011;59069;52.242;20.900;2023-09-18T13:34:16;10.80;;;7.30;;
70675;SDS011;59069;52.242;20.900;2023-09-18T13:36:47;9.40;;;7.35;;
70675;SDS011;59069;52.242;20.900;2023-09-18T13:39:13;11.48;;;8.25;;
70675;SDS011;59069;52.242;20.900;2023-09-18T13:41:42;10.90;;;7.67;;
70675;SDS011;59069;52.242;20.900;2023-09-18T13:44:07;9.43;;;7.07;;
70675;SDS011;59069;52.242;20.900;2023-09-18T13:46:33;10.63;;;7.50;;
70675;SDS011;59069;52.242;20.900;2023-09-18T13:49:01;9.15;;;6.72;;
70675;SDS011;59069;52.242;20.900;2023-09-18T13:51:28;9.02;;;6.72;;
70675;SDS011;59069;52.242;20.900;2023-09-18T13:53:54;9.83;;;6.87;;
70675;SDS011;59069;52.242;20.900;2023-09-18T13:56:21;9.85;;;7.50;;
70675;SDS011;59069;52.242;20.900;2023-09-18T13:58:46;11.00;;;7.60;;
70675;SDS011;59069;52.242;20.900;2023-09-18T14:01:12;8.77;;;7.10;;
70675;SDS011;59069;52.242;20.900;2023-09-18T14:03:40;8.57;;;6.45;;
70675;SDS011;59069;52.242;20.900;2023-09-18T14:06:06;9.85;;;6.97;;
70675;SDS011;59069;52.242;20.900;2023-09-18T14:08:34;9.17;;;6.03;;
70675;SDS011;59069;52.242;20.900;2023-09-18T14:10:59;12.70;;;7.50;;
70675;SDS011;59069;52.242;20.900;2023-09-18T14:13:25;11.97;;;7.53;;
70675;SDS011;59069;52.242;20.900;2023-09-18T14:15:50;9.20;;;7.43;;
70675;SDS011;59069;52.242;20.900;2023-09-18T14:18:16;11.40;;;7.47;;
70675;SDS011;59069;52.242;20.900;2023-09-18T14:20:41;10.32;;;7.85;;
70675;SDS011;59069;52.242;20.900;2023-09-18T14:23:06;9.50;;;6.80;;
70675;SDS011;59069;52.242;20.900;2023-09-18T14:25:32;9.10;;;6.70;;
70675;SDS011;59069;52.242;20.900;2023-09-18T14:27:58;8.88;;;6.35;;
70675;SDS011;59069;52.242;20.900;2023-09-18T14:30:23;9.87;;;6.60;;
70675;SDS011;59069;52.242;20.900;2023-09-18T14:32:54;10.25;;;5.97;;
70675;SDS011;59069;52.242;20.900;2023-09-18T14:35:20;9.30;;;6.17;;
70675;SDS011;59069;52.242;20.900;2023-09-18T14:37:45;9.02;;;6.50;;
70675;SDS011;59069;52.242;20.900;2023-09-18T14:40:11;7.80;;;6.27;;
70675;SDS011;59069;52.242;20.900;2023-09-18T14:42:37;9.03;;;6.37;;